Tiempo atmosférico en la estación meteorológica de Maspalomas, C. Insular Turismo, Las Palmas (45 m.)



Fecha
DESCASC
Temp. máxima en grados centígrados (hora)
DESCASC
Temp. mínima en grados centígrados (hora)
DESCASC
Temp. media en grados centígrados
DESCASC
Racha de viento máxima en m/sg (hora)
DESCASC
Velocidad máxima media en intervalos de 10 minutos(hora)
DESCASC
Precipitaciones diarias en mm
DESCASC
Precipitaciones de 00:00 a 06:00 en mm
DESCASC
Precipitaciones de 06:00 a 12:00 en mm
DESCASC
Precipitaciones de 12:00 a 18:00 en mm
DESCASC
Precipitaciones de 18:00 a 24:00 en mm
DESCASC
29-03-2020 21.8 (17:30) 15 (06:40) 18.4 11.11 (19:20) 4.72 (17:00) 0 0 0 0 0
28-03-2020 22.3 (13:30) 15 (06:40) 18.6 7.22 (13:50) 4.17 (13:20) 0.6 0.6 0 0 0
27-03-2020 22.1 (13:20) 14.6 (02:30) 18.4 10.56 (16:30) 5.83 (16:20) 0 0 0 0 0
26-03-2020 19.1 (09:10) 15.1 (00:00) 17.1 5.28 (09:50) 3.61 (10:10) 1.8 0 0 1.8 0
25-03-2020 22.6 (10:40) 16.5 (00:00) 19.6 6.67 (15:10) 4.17 (10:30) -- 0 -- 0 0
24-03-2020 22.3 (12:40) 17.6 (00:00) 19.9 10.28 (15:10) 5.83 (13:00) 0 0 0 0 0
23-03-2020 22.2 (13:40) 15.7 (00:00) 19 11.11 (05:10) 6.11 (05:30) 0 0 0 0 0
22-03-2020 21.5 (13:50) 16.1 (06:30) 18.8 14.17 (17:10) 7.5 (17:10) 0 0 0 0 0
21-03-2020 21.4 (15:50) 17.1 (00:00) 19.3 11.39 (15:10) 5.83 (15:00) 0 0 0 0 0
20-03-2020 23 (16:00) 16.7 (00:00) 19.9 9.17 (13:30) 6.11 (13:30) 0 0 0 0 0
19-03-2020 23.7 (15:10) 16.9 (00:00) 20.3 8.89 (14:20) 5.83 (14:20) 0 0 0 0 0
18-03-2020 22.2 (14:20) 15.3 (00:00) 18.8 9.17 (15:00) 5.56 (15:20) 0 0 0 0 0
17-03-2020 21.4 (15:00) 16.2 (00:00) 18.8 11.94 (11:20) 5.28 (13:50) 0 0 0 0 0
16-03-2020 22.9 (14:20) 16.1 (00:00) 19.5 10.56 (15:20) 6.11 (15:30) 0 0 0 0 0
15-03-2020 22.7 (13:20) 16.4 (00:00) 19.6 8.61 (17:10) 5.28 (13:50) 0 0 0 0 0
14-03-2020 22.7 (16:30) 16.5 (00:00) 19.6 10.83 (11:40) 4.44 (13:20) 0 0 0 0 0
13-03-2020 23.4 (12:30) 16.6 (07:30) 20 7.78 (12:50) 4.72 (12:40) 0 0 0 0 0
12-03-2020 24.9 (11:40) 17.4 (00:00) 21.1 9.72 (13:10) 4.72 (12:20) 0 0 0 0 0
11-03-2020 23.1 (22:30) 15.8 (00:00) 19.5 9.72 (22:40) 5 (13:50) 0 0 0 0 0
10-03-2020 24.7 (00:30) 17.5 (00:00) 21.1 8.89 (11:40) 5.28 (13:40) 0 0 0 0 0
09-03-2020 27.2 (11:50) 19.8 (00:00) 23.5 12.22 (10:10) 6.11 (10:00) 0 0 0 0 0
08-03-2020 28.6 (17:00) 16.1 (00:00) 22.4 17.22 (11:20) 6.39 (11:20) 0 0 0 0 0
07-03-2020 22.6 (14:20) 15.3 (00:00) 19 8.33 (13:00) 5 (13:00) 0 0 0 0 0
06-03-2020 22.9 (15:20) 16.5 (00:00) 19.7 10 (12:40) 5.28 (15:10) 0 0 0 0 0
05-03-2020 24 (15:00) 17.2 (00:00) 20.6 8.06 (15:20) 4.17 (14:00) 0 0 0 0 0
04-03-2020 24.1 (16:00) 16.1 (00:00) 20.1 5.83 (12:30) 3.61 (13:20) 0 0 0 0 0
03-03-2020 23.4 (12:40) 15.8 (00:00) 19.6 7.78 (15:10) 4.44 (14:30) 0 0 0 0 0
02-03-2020 23.2 (15:20) 16.7 (00:00) 20 7.5 (14:20) 4.44 (13:10) 0 0 0 0 0
01-03-2020 21.5 (14:50) 15.5 (00:00) 18.5 10.28 (12:00) 5.28 (12:40) 0 0 0 0 0
29-02-2020 22.5 (15:50) 15.4 (00:00) 18.9 7.22 (16:50) 3.89 (16:50) 0 0 0 0 0

Gráficas

Temp. máximas Temp. mínimas Temp. medias Precipitaciones Rachas de viento máximas Velocidades máximas media en intervalos de 10 minutos

Datos horarios

Fecha y hora oficial Temperatura (ºC) Velocidad del viento (km/h) Dirección del viento Racha (km/h) Dirección de racha Precipitación (mm) Presión (hPa) Tendencia (hPa) Humedad (%)
2020-03-29 23:00:00 18.2 6 Este 13 Nordeste 0 -- -- 72
2020-03-29 22:00:00 18.5 9 Oeste 22 Oeste 0 -- -- 70
2020-03-29 21:00:00 19 12 Oeste 29 Oeste 0 -- -- 69
2020-03-29 20:00:00 19.7 17 Sudoeste 40 Sudoeste 0 -- -- 66
2020-03-29 19:00:00 21 14 Sudoeste 28 Sudoeste 0 -- -- 62
2020-03-29 18:00:00 21.7 15 Sudoeste 30 Oeste 0 -- -- 55
2020-03-29 17:00:00 21.4 17 Sudoeste 30 Sudoeste 0 -- -- 56
2020-03-29 16:00:00 20.2 11 Sudoeste 22 Sudoeste 0 -- -- 62
2020-03-29 15:00:00 19.8 11 Sur 21 Sudeste 0 -- -- 66
2020-03-29 14:00:00 19 9 Sudeste 20 Este 0 -- -- 69
2020-03-29 13:00:00 18.9 12 Sudeste 20 Sudeste 0 -- -- 69
2020-03-29 12:00:00 19.3 13 Sudeste 21 Este 0 -- -- 66
2020-03-29 11:00:00 19.1 9 Sudeste 15 Sudeste 0 -- -- 64
2020-03-29 10:00:00 18.8 5 Sudeste 12 Sudeste 0 -- -- 64
2020-03-29 09:00:00 16.6 4 Norte 12 Norte 0 -- -- 70
2020-03-29 08:00:00 15.2 4 Norte 11 Norte 0 -- -- 75
2020-03-29 07:00:00 15.1 8 Norte 12 Noroeste 0 -- -- 74
2020-03-29 06:00:00 15.1 6 Norte 13 Norte 0 -- -- 74
2020-03-29 05:00:00 15.5 5 Norte 14 Norte 0 -- -- 74
2020-03-29 04:00:00 15.8 9 Norte 13 Noroeste 0 -- -- 74
2020-03-29 00:00:00 17 4 Norte 6 Norte 0 -- -- 75
2020-03-28 23:00:00 17.2 0 Calma 5 Sur 0 -- -- 74
2020-03-28 22:00:00 17.7 2 Sur 6 Sur 0 -- -- 73
2020-03-28 21:00:00 18.1 3 Sudoeste 10 Oeste 0 -- -- 71
2020-03-28 20:00:00 18.8 7 Oeste 18 Oeste 0 -- -- 68
2020-03-28 19:00:00 19.9 11 Oeste 20 Sudoeste 0 -- -- 61
2020-03-28 18:00:00 20.3 10 Sudoeste 22 Sudoeste 0 -- -- 55
2020-03-28 17:00:00 20.7 12 Sudoeste 22 Sudoeste 0 -- -- 58
2020-03-28 16:00:00 21.2 4 Sur 19 Sur 0 -- -- 56
2020-03-28 15:00:00 21.1 11 Sudoeste 22 Sudoeste 0 -- -- 58
2020-03-28 14:00:00 21.6 14 Sudoeste 26 Sudoeste 0 -- -- 58
2020-03-28 13:00:00 21.7 11 Sur 22 Sur 0 -- -- 57
2020-03-28 12:00:00 21.3 13 Sudoeste 21 Sudoeste 0 -- -- 61
2020-03-28 11:00:00 20.7 10 Sur 18 Sur 0 -- -- 65
2020-03-28 10:00:00 20.4 6 Sur 15 Sur 0 -- -- 67
2020-03-28 09:00:00 18.1 0 Calma 10 Noroeste 0 -- -- 75
2020-03-28 08:00:00 16 6 Norte 11 Noroeste 0 -- -- 78
2020-03-28 07:00:00 15.1 7 Norte 12 Norte 0 -- -- 81
2020-03-28 06:00:00 15.2 6 Norte 10 Norte 0 -- -- 81
2020-03-28 05:00:00 15.5 3 Norte 9 Noroeste 0 -- -- 82
2020-03-28 04:00:00 15.7 4 Noroeste 6 Norte 0 -- -- 85
2020-03-28 03:00:00 16.1 4 Noroeste 9 Noroeste 0 -- -- 87
2020-03-28 02:00:00 16.3 2 Nordeste 6 Este 0 -- -- 86
2020-03-28 01:00:00 16.4 4 Nordeste 20 Nordeste 0.6 -- -- 84
2020-03-28 00:00:00 17.1 9 Este 18 Nordeste 0 -- -- 77
2020-03-27 23:00:00 17.4 3 Nordeste 12 Este 0 -- -- 78
2020-03-27 22:00:00 18.2 3 Sur 8 Sudoeste 0 -- -- 74
2020-03-27 21:00:00 18.4 6 Oeste 15 Oeste 0 -- -- 72
2020-03-27 20:00:00 18.7 8 Sudoeste 23 Oeste 0 -- -- 71
2020-03-27 19:00:00 19.4 12 Sudoeste 27 Sudoeste 0 -- -- 70
2020-03-27 18:00:00 20.3 15 Sudoeste 31 Oeste 0 -- -- 66
2020-03-27 17:00:00 21.5 16 Oeste 38 Oeste 0 -- -- 59
2020-03-27 16:00:00 21.2 18 Sudoeste 32 Sudoeste 0 -- -- 62
2020-03-27 15:00:00 22 16 Sudoeste 31 Oeste 0 -- -- 59
2020-03-27 14:00:00 21.7 18 Sudoeste 29 Sudoeste 0 -- -- 58
2020-03-27 13:00:00 21.4 15 Sudoeste 24 Sudoeste 0 -- -- 54
2020-03-27 12:00:00 18.9 11 Sudeste 17 Sudeste 0 -- -- 67
2020-03-27 11:00:00 19.4 8 Sudeste 16 Este 0 -- -- 56
2020-03-27 10:00:00 18.3 9 Sudeste 13 Este 0 -- -- 61
2020-03-27 09:00:00 18.3 6 Sudeste 9 Sudeste 0 -- -- 59
2020-03-27 08:00:00 15.5 5 Norte 9 Norte 0 -- -- 66
2020-03-27 07:00:00 14.7 4 Noroeste 8 Noroeste 0 -- -- 74
2020-03-27 06:00:00 15.3 4 Noroeste 9 Noroeste 0 -- -- 74
2020-03-27 05:00:00 15.2 5 Noroeste 10 Noroeste 0 -- -- 75
2020-03-27 04:00:00 14.8 6 Norte 12 Noroeste 0 -- -- 77
2020-03-27 03:00:00 14.6 7 Norte 12 Noroeste 0 -- -- 78
2020-03-27 02:00:00 14.7 5 Norte 8 Noroeste 0 -- -- 79
2020-03-27 01:00:00 15 4 Noroeste 9 Noroeste 0 -- -- 81
2020-03-27 00:00:00 15.1 4 Norte 7 Norte 0 -- -- 81
2020-03-26 23:00:00 15.4 3 Norte 5 Noroeste 0 -- -- 80
2020-03-26 22:00:00 15.3 3 Norte 5 Norte 0 -- -- 80
2020-03-26 21:00:00 15.4 2 Norte 7 Este 0 -- -- 80
2020-03-26 20:00:00 15.4 5 Este 15 Este 0 -- -- 79
2020-03-26 19:00:00 15.9 6 Este 15 Este 0 -- -- 77
2020-03-26 18:00:00 16.1 6 Este 13 Este 0 -- -- 76
2020-03-26 17:00:00 16.4 7 Este 17 Este 0 -- -- 72
2020-03-26 16:00:00 16.4 8 Este 17 Este 0.2 -- -- 78
2020-03-26 15:00:00 16.4 6 Sudoeste 15 Este 1.6 -- -- 84
2020-03-26 14:00:00 17.4 8 Este 14 Este 0 -- -- 72
2020-03-26 13:00:00 17.9 6 Este 15 Este 0 -- -- 69
2020-03-26 12:00:00 18.1 8 Este 17 Este 0 -- -- 71
2020-03-26 11:00:00 18.9 9 Sudeste 19 Sudeste 0 -- -- 62
2020-03-26 10:00:00 18.9 12 Sudeste 19 Sudeste 0 -- -- 60
2020-03-26 09:00:00 18.6 2 Sudeste 6 Este 0 -- -- 61
2020-03-26 08:00:00 16.4 4 Norte 9 Norte 0 -- -- 67
2020-03-26 07:00:00 15.2 3 Norte 5 Norte 0 -- -- 69
2020-03-26 06:00:00 15.7 0 Calma 5 Oeste 0 -- -- 68
2020-03-26 05:00:00 16.1 0 Calma 7 Nordeste 0 -- -- 65
2020-03-26 04:00:00 16.7 3 Nordeste 14 Nordeste 0 -- -- 63
2020-03-26 03:00:00 16.4 3 Norte 11 Nordeste 0 -- -- 65
2020-03-26 02:00:00 16.7 6 Nordeste 15 Este 0 -- -- 63
2020-03-26 01:00:00 16.7 4 Nordeste 12 Nordeste 0 -- -- 62
2020-03-26 00:00:00 16.5 4 Nordeste 5 Nordeste 0 -- -- 70
2020-03-25 23:00:00 16.9 3 Nordeste 10 Oeste 0 -- -- 70
2020-03-25 22:00:00 17 3 Norte 11 Este 0 -- -- 70
2020-03-25 21:00:00 17.2 5 Este 16 Este 0 -- -- 70
2020-03-25 20:00:00 17.4 7 Este 19 Nordeste 0 -- -- 69
2020-03-25 19:00:00 17.8 6 Nordeste 19 Este 0 -- -- 72
2020-03-25 18:00:00 18 5 Este 20 Este 0 -- -- 70
2020-03-25 17:00:00 17.8 8 Este 19 Nordeste 0 -- -- 71
2020-03-25 16:00:00 18 10 Nordeste 24 Nordeste 0 -- -- 70
2020-03-25 15:00:00 18.2 11 Nordeste 24 Nordeste 0 -- -- 62
2020-03-25 14:00:00 18.5 9 Este 22 Este 0 -- -- 66
2020-03-25 13:00:00 18.7 8 Este 19 Este 0 -- -- 67
2020-03-25 12:00:00 18.8 8 Sudeste -- -- -- -- -- 62
2020-03-25 11:00:00 -- -- -- -- -- -- -- -- --
2020-03-25 10:00:00 20.8 11 Sudoeste 19 Sudoeste 0 -- -- 58
2020-03-25 09:00:00 19 6 Sudoeste 9 Oeste 0 -- -- 64
2020-03-25 08:00:00 18.1 3 Noroeste 6 Oeste 0 -- -- 67
2020-03-25 07:00:00 17.6 0 Calma 5 Este 0 -- -- 67
2020-03-25 06:00:00 17.6 2 Sudeste 6 Oeste 0 -- -- 70
2020-03-25 05:00:00 17.7 2 Norte 7 Oeste 0 -- -- 69
2020-03-25 04:00:00 17.6 5 Noroeste 11 Noroeste 0 -- -- 68
2020-03-25 03:00:00 17.3 6 Noroeste 10 Noroeste 0 -- -- 69
2020-03-25 02:00:00 17.1 5 Noroeste 8 Nordeste 0 -- -- 67
2020-03-25 01:00:00 17.4 2 Norte 6 Norte 0 -- -- 72
2020-03-25 00:00:00 17.7 3 Oeste 14 Sudoeste 0 -- -- 70
2020-03-24 23:00:00 18 9 Sudoeste 17 Sudoeste 0 -- -- 71
2020-03-24 22:00:00 18.4 8 Sudoeste 15 Sudoeste 0 -- -- 73
2020-03-24 21:00:00 18.8 5 Noroeste 10 Sur 0 -- -- 69
2020-03-24 20:00:00 18.8 5 Sur 24 Sudeste 0 -- -- 70
2020-03-24 19:00:00 18.9 14 Sudeste 29 Este 0 -- -- 69
2020-03-24 18:00:00 19.3 13 Este 24 Este 0 -- -- 73
2020-03-24 17:00:00 20.7 12 Este 27 Sudeste 0 -- -- 66
2020-03-24 16:00:00 21.2 15 Sur 37 Sur 0 -- -- 63
2020-03-24 15:00:00 21.9 18 Sur 35 Sur 0 -- -- 58
2020-03-24 14:00:00 22.3 15 Sur 35 Sur 0 -- -- 52
2020-03-24 13:00:00 21.8 21 Sur 35 Sur 0 -- -- 54
2020-03-24 12:00:00 22 16 Sur 31 Sur 0 -- -- 56
2020-03-24 11:00:00 20 12 Sur 21 Sudeste 0 -- -- 60
2020-03-24 10:00:00 19.3 11 Este 16 Sudeste 0 -- -- 64
2020-03-24 09:00:00 18.4 6 Nordeste 11 Nordeste 0 -- -- 68
2020-03-24 08:00:00 17.9 3 Oeste 9 Sudoeste 0 -- -- 69
2020-03-24 07:00:00 17.8 4 Noroeste 17 Sudeste 0 -- -- 68
2020-03-24 06:00:00 17.6 6 Sudeste 13 Sur 0 -- -- 69
2020-03-24 05:00:00 17.8 4 Sudeste 14 Sur 0 -- -- 69
2020-03-24 04:00:00 17.8 9 Sur 17 Sur 0 -- -- 67
2020-03-24 03:00:00 17.9 6 Sudeste 16 Sudeste 0 -- -- 70
2020-03-24 02:00:00 17.9 7 Sur 19 Sudeste 0 -- -- 66
2020-03-24 01:00:00 18.2 8 Sudeste 22 Sudeste 0 -- -- 64
2020-03-24 00:00:00 18.2 6 Sudeste 15 Sudeste 0 -- -- 64
2020-03-23 23:00:00 18.3 8 Sudeste 26 Sudeste 0 -- -- 61
2020-03-23 22:00:00 18.5 11 Sudeste 23 Sudeste 0 -- -- 62
2020-03-23 21:00:00 18.4 10 Sudeste 19 Sudeste 0 -- -- 61
2020-03-23 20:00:00 18.7 10 Sudoeste 18 Sudoeste 0 -- -- 56
2020-03-23 19:00:00 20 6 Oeste 27 Sudoeste 0 -- -- 47
2020-03-23 18:00:00 20.1 18 Sur 26 Sur 0 -- -- 55
2020-03-23 17:00:00 21.5 13 Noroeste 30 Norte 0 -- -- 39
2020-03-23 16:00:00 21 10 Norte 36 Sudeste 0 -- -- 47
2020-03-23 15:00:00 20.9 15 Sur 39 Sur 0 -- -- 52
2020-03-23 14:00:00 22 20 Sur 34 Sudoeste 0 -- -- 48
2020-03-23 13:00:00 21.7 19 Sur 30 Sudoeste 0 -- -- 43
2020-03-23 12:00:00 20.7 10 Sur 27 Sudeste 0 -- -- 48
2020-03-23 11:00:00 19.4 12 Este 27 Sudeste 0 -- -- 47
2020-03-23 10:00:00 18.4 10 Sudeste 26 Noroeste 0 -- -- 52
2020-03-23 09:00:00 17.5 7 Oeste 17 Sudoeste 0 -- -- 55
2020-03-23 08:00:00 16.7 10 Noroeste 22 Noroeste 0 -- -- 52
2020-03-23 07:00:00 16 9 Oeste 25 Noroeste 0 -- -- 57
2020-03-23 06:00:00 16.6 10 Noroeste 40 Noroeste 0 -- -- 56
2020-03-23 05:00:00 17 14 Noroeste 31 Oeste 0 -- -- 47
2020-03-23 04:00:00 17.7 19 Noroeste 37 Noroeste 0 -- -- 47
2020-03-23 03:00:00 17.4 10 Oeste 27 Oeste 0 -- -- 49
2020-03-23 02:00:00 17.4 8 Noroeste 17 Noroeste 0 -- -- 52
2020-03-23 01:00:00 17.4 6 Sudoeste 18 Oeste 0 -- -- 51
2020-03-23 00:00:00 18 9 Oeste 19 Noroeste 0 -- -- 50
2020-03-22 23:00:00 17.2 3 Sur 14 Sudeste 0 -- -- 76
2020-03-22 22:00:00 17.6 9 Sudeste 13 Sudeste 0 -- -- 78
2020-03-22 21:00:00 18.2 5 Oeste 16 Oeste 0 -- -- 72
2020-03-22 20:00:00 18.5 8 Oeste 28 Oeste 0 -- -- 68
2020-03-22 19:00:00 19 17 Oeste 37 Oeste 0 -- -- 63
2020-03-22 18:00:00 20 20 Oeste 51 Oeste 0 -- -- 60
2020-03-22 17:00:00 20.7 21 Oeste 43 Oeste 0 -- -- 57
2020-03-22 16:00:00 21.2 13 Sudoeste 32 Sudoeste 0 -- -- 58
2020-03-22 15:00:00 20.8 17 Sudoeste 32 Sudoeste 0 -- -- 58
2020-03-22 14:00:00 21.3 18 Oeste 30 Sudoeste 0 -- -- 50
2020-03-22 13:00:00 19.3 10 Este 26 Este 0 -- -- 63
2020-03-22 12:00:00 19.5 12 Este 22 Sudeste 0 -- -- 56
2020-03-22 11:00:00 19.3 13 Este 21 Este 0 -- -- 57
2020-03-22 10:00:00 19.8 10 Sudoeste 16 Sudoeste 0 -- -- 52
2020-03-22 09:00:00 18.6 5 Oeste 10 Oeste 0 -- -- 56
2020-03-22 08:00:00 17.2 0 Calma 9 Sudeste 0 -- -- 62
2020-03-22 07:00:00 16.2 4 Sur 9 Sudeste 0 -- -- 65
2020-03-22 06:00:00 16.3 5 Norte 9 Noroeste 0 -- -- 65
2020-03-22 05:00:00 16.2 4 Sur 13 Sudeste 0 -- -- 67
2020-03-22 04:00:00 16.7 5 Sudeste 11 Este 0 -- -- 66
2020-03-22 03:00:00 16.7 5 Este 9 Sudeste 0 -- -- 68
2020-03-22 02:00:00 17.1 5 Sudeste 11 Sur 0 -- -- 65
2020-03-22 01:00:00 17.2 3 Sur 6 Oeste 0 -- -- 64
2020-03-22 00:00:00 17.1 2 Sudoeste 9 Sudeste 0 -- -- 64
2020-03-21 23:00:00 17.2 2 Sudoeste 10 Sudoeste 0 -- -- 63
2020-03-21 22:00:00 17.9 5 Sudoeste 15 Sur 0 -- -- 59
2020-03-21 21:00:00 17.7 9 Sur 17 Sudoeste 0 -- -- 62
2020-03-21 20:00:00 18 10 Sur 19 Sur 0 -- -- 61
2020-03-21 19:00:00 18.9 13 Sudoeste 27 Sudoeste 0 -- -- 57
2020-03-21 18:00:00 20.1 18 Sudoeste 32 Sudoeste 0 -- -- 53
2020-03-21 17:00:00 21.1 15 Sudoeste 29 Sudoeste 0 -- -- 50
2020-03-21 16:00:00 21.2 17 Oeste 41 Oeste 0 -- -- 52
2020-03-21 15:00:00 20.9 21 Oeste 35 Sudoeste 0 -- -- 52
2020-03-21 14:00:00 21 19 Oeste 35 Oeste 0 -- -- 49
2020-03-21 13:00:00 20.7 9 Sudoeste 31 Este 0 -- -- 47
2020-03-21 12:00:00 20 14 Este 37 Este 0 -- -- 50
2020-03-21 11:00:00 19.7 12 Este 36 Este 0 -- -- 49
2020-03-21 10:00:00 19.4 15 Este 28 Este 0 -- -- 48
2020-03-21 09:00:00 18.8 8 Nordeste 22 Este 0 -- -- 50
2020-03-21 08:00:00 17.3 9 Este 20 Este 0 -- -- 54
2020-03-21 07:00:00 17.2 6 Nordeste 17 Este 0 -- -- 54
2020-03-21 06:00:00 17.2 6 Nordeste 12 Nordeste 0 -- -- 56
2020-03-21 05:00:00 17.2 3 Nordeste 15 Este 0 -- -- 56
2020-03-21 04:00:00 17.3 6 Nordeste 14 Este 0 -- -- 60
2020-03-21 03:00:00 17.7 3 Nordeste 7 Norte 0 -- -- 67
2020-03-21 02:00:00 17.4 4 Noroeste 9 Este 0 -- -- 70
2020-03-21 01:00:00 17.4 5 Nordeste 21 Este 0 -- -- 69
2020-03-21 00:00:00 17.9 6 Nordeste 17 Nordeste 0 -- -- 68
2020-03-20 23:00:00 17.8 8 Este 18 Nordeste 0 -- -- 72
2020-03-20 22:00:00 18.1 8 Este 14 Este 0 -- -- 69
2020-03-20 21:00:00 18.8 5 Noroeste 24 Este 0 -- -- 65
2020-03-20 20:00:00 18.9 8 Sudeste 12 Sudeste 0 -- -- 68
2020-03-20 19:00:00 20.3 8 Sudoeste 19 Sudoeste 0 -- -- 60
2020-03-20 18:00:00 21.5 13 Sudoeste 21 Sudoeste 0 -- -- 54
2020-03-20 17:00:00 22.7 10 Oeste 24 Sur 0 -- -- 49
2020-03-20 16:00:00 23 14 Sudoeste 26 Sudoeste 0 -- -- 50
2020-03-20 15:00:00 22.5 15 Sur 31 Sudoeste 0 -- -- 53
2020-03-20 14:00:00 22.3 16 Sur 33 Sur 0 -- -- 55
2020-03-20 13:00:00 21.6 21 Sur 30 Sur 0 -- -- 60
2020-03-20 12:00:00 21.5 17 Sudoeste 30 Sudoeste 0 -- -- 61
2020-03-20 11:00:00 22 11 Sudoeste 16 Sudoeste 0 -- -- 55
2020-03-20 10:00:00 20.7 6 Oeste 17 Oeste 0 -- -- 60
2020-03-20 09:00:00 19.2 3 Nordeste 8 Este 0 -- -- 66
2020-03-20 08:00:00 16.9 4 Norte 10 Norte 0 -- -- 70
2020-03-20 07:00:00 16.7 5 Noroeste 10 Norte 0 -- -- 71
2020-03-20 06:00:00 17.1 6 Norte 14 Norte 0 -- -- 69
2020-03-20 05:00:00 17.1 2 Este 7 Este 0 -- -- 72
2020-03-20 04:00:00 17.3 6 Norte 11 Norte 0 -- -- 67
2020-03-20 03:00:00 17.6 5 Noroeste 14 Noroeste 0 -- -- 67
2020-03-20 02:00:00 17.6 2 Noroeste 7 Norte 0 -- -- 69
2020-03-20 01:00:00 18.1 4 Norte 8 Noroeste 0 -- -- 66
2020-03-20 00:00:00 18.2 0 Calma 5 Norte 0 -- -- 68
2020-03-19 23:00:00 18.8 4 Nordeste 7 Norte 0 -- -- 67
2020-03-19 22:00:00 19.1 4 Nordeste 8 Oeste 0 -- -- 70
2020-03-19 21:00:00 19.2 5 Oeste 10 Oeste 0 -- -- 69
2020-03-19 20:00:00 19.8 5 Oeste 9 Sudoeste 0 -- -- 64
2020-03-19 19:00:00 20.1 3 Sudeste 21 Sudeste 0 -- -- 61
2020-03-19 18:00:00 21.2 9 Sudeste 24 Sudoeste 0 -- -- 66
2020-03-19 17:00:00 22.6 19 Sudoeste 32 Sudoeste 0 -- -- 52
2020-03-19 16:00:00 23.7 17 Sudoeste 31 Sudoeste 0 -- -- 48
2020-03-19 15:00:00 23.3 20 Sudoeste 32 Sur 0 -- -- 48
2020-03-19 14:00:00 23.2 19 Sur 30 Sur 0 -- -- 51
2020-03-19 13:00:00 22.7 15 Sur 29 Sudoeste 0 -- -- 55
2020-03-19 12:00:00 21.9 16 Sur 26 Sur 0 -- -- 62
2020-03-19 11:00:00 20.9 10 Sudeste 18 Sudeste 0 -- -- 56
2020-03-19 10:00:00 20 8 Sudeste 13 Sudeste 0 -- -- 62
2020-03-19 09:00:00 19.2 2 Este 10 Nordeste 0 -- -- 66
2020-03-19 08:00:00 17.7 5 Nordeste 12 Este 0 -- -- 71
2020-03-19 07:00:00 17.2 4 Nordeste 16 Este 0 -- -- 73
2020-03-19 06:00:00 17.3 4 Este 10 Sur 0 -- -- 74
2020-03-19 05:00:00 17.2 3 Este 12 Norte 0 -- -- 64
2020-03-19 04:00:00 17.1 6 Nordeste 15 Nordeste 0 -- -- 60
2020-03-19 03:00:00 16.9 3 Norte 6 Noroeste 0 -- -- 61
2020-03-19 02:00:00 17.5 3 Nordeste 8 Norte 0 -- -- 59
2020-03-19 01:00:00 17.9 8 Sudeste 14 Sur 0 -- -- 59
2020-03-19 00:00:00 17.6 10 Sur 15 Sudoeste 0 -- -- 63
2020-03-18 23:00:00 18.3 3 Oeste 18 Este 0 -- -- 60
2020-03-18 22:00:00 18.5 11 Sudeste 21 Sudeste 0 -- -- 61
2020-03-18 21:00:00 18.6 6 Sur 12 Sudeste 0 -- -- 62
2020-03-18 20:00:00 18.9 6 Sudoeste 13 Sur 0 -- -- 56
2020-03-18 19:00:00 19.3 8 Sur 22 Sudeste 0 -- -- 59
2020-03-18 18:00:00 19.5 13 Sudeste 24 Sudeste 0 -- -- 62
2020-03-18 17:00:00 20.7 14 Sur 27 Sudeste 0 -- -- 54
2020-03-18 16:00:00 21.5 18 Sur 33 Sur 0 -- -- 51
2020-03-18 15:00:00 21.8 17 Sur 33 Sur 0 -- -- 47
2020-03-18 14:00:00 22.1 14 Sur 28 Sur 0 -- -- 45
2020-03-18 13:00:00 21.3 15 Sur 26 Sur 0 -- -- 48
2020-03-18 12:00:00 20.9 12 Sur 29 Sur 0 -- -- 51
2020-03-18 11:00:00 20.3 15 Sur 23 Sur 0 -- -- 55
2020-03-18 10:00:00 19.4 9 Sur 17 Sur 0 -- -- 57
2020-03-18 09:00:00 17.6 4 Noroeste 10 Noroeste 0 -- -- 61
2020-03-18 08:00:00 15.7 6 Noroeste 9 Noroeste 0 -- -- 69
2020-03-18 07:00:00 15.4 4 Norte 6 Norte 0 -- -- 71
2020-03-18 06:00:00 15.5 4 Nordeste 6 Nordeste 0 -- -- 70
2020-03-18 05:00:00 15.7 2 Sudoeste 4 Sudoeste 0 -- -- 68
2020-03-18 04:00:00 16.3 0 Calma 23 Este 0 -- -- 63
2020-03-18 03:00:00 17 3 Este 11 Este 0 -- -- 64
2020-03-18 02:00:00 16.8 5 Sudeste 13 Este 0 -- -- 66
2020-03-18 01:00:00 16.9 4 Nordeste 13 Este 0 -- -- 64
2020-03-18 00:00:00 17.3 4 Nordeste 15 Este 0 -- -- 62
2020-03-17 23:00:00 17.5 0 Calma 14 Sudoeste 0 -- -- 64
2020-03-17 22:00:00 17.7 5 Sudeste 14 Sudeste 0 -- -- 64
2020-03-17 21:00:00 18.1 7 Sudoeste 14 Oeste 0 -- -- 64
2020-03-17 20:00:00 18.3 9 Sudoeste 18 Sudoeste 0 -- -- 63
2020-03-17 19:00:00 18.7 9 Sudoeste 24 Sudoeste 0 -- -- 62
2020-03-17 18:00:00 19.2 12 Sudoeste 24 Sudoeste 0 -- -- 61
2020-03-17 17:00:00 19.9 14 Sudoeste 27 Oeste 0 -- -- 57
2020-03-17 16:00:00 20.2 16 Sudoeste 27 Oeste 0 -- -- 56
2020-03-17 15:00:00 21.4 18 Sudoeste 27 Sudoeste 0 -- -- 51
2020-03-17 14:00:00 20.5 14 Sudoeste 29 Oeste 0 -- -- 51
2020-03-17 13:00:00 20.5 11 Oeste 29 Oeste 0 -- -- 50
2020-03-17 12:00:00 20.5 14 Oeste 43 Sudeste 0 -- -- 51
2020-03-17 11:00:00 19 17 Este 35 Este 0 -- -- 54
2020-03-17 10:00:00 19.6 4 Sudeste 25 Nordeste 0 -- -- 50
2020-03-17 09:00:00 18.1 9 Nordeste 20 Este 0 -- -- 54
2020-03-17 08:00:00 17 9 Nordeste 20 Nordeste 0 -- -- 56
2020-03-17 07:00:00 16.5 9 Nordeste 22 Nordeste 0 -- -- 61
2020-03-17 06:00:00 16.8 6 Este 25 Nordeste 0 -- -- 61
2020-03-17 05:00:00 16.5 6 Este 23 Nordeste 0 -- -- 59
2020-03-17 04:00:00 16.2 14 Nordeste 36 Este 0 -- -- 63
2020-03-17 03:00:00 17.2 12 Nordeste 25 Nordeste 0 -- -- 55
2020-03-17 02:00:00 17.2 12 Nordeste 22 Este 0 -- -- 57
2020-03-17 01:00:00 17.7 7 Este 25 Este 0 -- -- 57
2020-03-17 00:00:00 18.3 7 Nordeste 22 Sudeste 0 -- -- 59
2020-03-16 23:00:00 18.3 6 Nordeste 25 Este 0 -- -- 60
2020-03-16 22:00:00 18.5 4 Nordeste 10 Este 0 -- -- 61
2020-03-16 21:00:00 19 5 Norte 20 Sudeste 0 -- -- 63
2020-03-16 20:00:00 19.1 8 Sur 19 Sur 0 -- -- 62
2020-03-16 19:00:00 20.4 10 Sudoeste 15 Sudoeste 0 -- -- 61
2020-03-16 18:00:00 21.8 5 Oeste 25 Sudoeste 0 -- -- 49
2020-03-16 17:00:00 21.9 18 Sudoeste 31 Sudoeste 0 -- -- 53
2020-03-16 16:00:00 22.4 15 Sudoeste 38 Sudoeste 0 -- -- 50
2020-03-16 15:00:00 22.2 18 Sudoeste 30 Oeste 0 -- -- 51
2020-03-16 14:00:00 22.5 16 Sudoeste 33 Sudoeste 0 -- -- 50
2020-03-16 13:00:00 21 18 Sudoeste 32 Sudoeste 0 -- -- 55
2020-03-16 12:00:00 21.5 14 Oeste 24 Oeste 0 -- -- 54
2020-03-16 11:00:00 20.6 10 Sudoeste 15 Sudoeste 0 -- -- 58
2020-03-16 10:00:00 19 5 Sudoeste 15 Oeste 0 -- -- 63
2020-03-16 09:00:00 17.8 4 Norte 9 Noroeste 0 -- -- 68
2020-03-16 08:00:00 16.8 3 Norte 10 Noroeste 0 -- -- 69
2020-03-16 07:00:00 16.3 6 Norte 14 Norte 0 -- -- 72
2020-03-16 06:00:00 16.4 4 Sudeste 8 Norte 0 -- -- 72
2020-03-16 05:00:00 17.1 2 Norte 5 Noroeste 0 -- -- 69
2020-03-16 04:00:00 17.5 2 Nordeste 10 Oeste 0 -- -- 66
2020-03-16 03:00:00 18 3 Oeste 6 Sudoeste 0 -- -- 66
2020-03-16 02:00:00 18 5 Norte 10 Oeste 0 -- -- 64
2020-03-16 01:00:00 18.2 2 Sudoeste 6 Norte 0 -- -- 63
2020-03-16 00:00:00 18.1 4 Norte 9 Noroeste 0 -- -- 65
2020-03-15 23:00:00 18.3 5 Oeste 9 Noroeste 0 -- -- 65
2020-03-15 22:00:00 18.5 2 Nordeste 9 Sudoeste 0 -- -- 63
2020-03-15 21:00:00 18.6 5 Sur 24 Sudoeste 0 -- -- 67
2020-03-15 20:00:00 18.9 8 Sur 23 Sudoeste 0 -- -- 68
2020-03-15 19:00:00 20.2 9 Oeste 18 Sudoeste 0 -- -- 54
2020-03-15 18:00:00 20.1 7 Nordeste 31 Sudeste 0 -- -- 55
2020-03-15 17:00:00 21.1 13 Sur 27 Sudoeste 0 -- -- 56
2020-03-15 16:00:00 21.7 15 Sudoeste 27 Sudoeste 0 -- -- 52
2020-03-15 15:00:00 22.5 16 Sudoeste 30 Sudoeste 0 -- -- 49
2020-03-15 14:00:00 22 18 Oeste 28 Sudoeste 0 -- -- 49
2020-03-15 13:00:00 22.5 9 Sudoeste 20 Sudoeste 0 -- -- 44
2020-03-15 12:00:00 21.8 10 Sur 25 Sudoeste 0 -- -- 48
2020-03-15 11:00:00 20.5 10 Sudeste 20 Este 0 -- -- 54
2020-03-15 10:00:00 19.6 8 Sudeste 16 Sudeste 0 -- -- 58
2020-03-15 09:00:00 18 4 Nordeste 6 Norte 0 -- -- 64
2020-03-15 08:00:00 16.9 3 Oeste 7 Oeste 0 -- -- 65
2020-03-15 07:00:00 16.6 5 Norte 12 Noroeste 0 -- -- 69
2020-03-15 06:00:00 16.7 5 Oeste 10 Este 0 -- -- 69
2020-03-15 05:00:00 16.9 3 Noroeste 10 Noroeste 0 -- -- 69
2020-03-15 04:00:00 16.9 7 Noroeste 12 Noroeste 0 -- -- 68
2020-03-15 03:00:00 17.2 5 Oeste 10 Oeste 0 -- -- 68
2020-03-15 02:00:00 18 2 Sur 9 Este 0 -- -- 62
2020-03-15 01:00:00 18.1 4 Nordeste 9 Noroeste 0 -- -- 67
2020-03-15 00:00:00 18 6 Noroeste 9 Noroeste 0 -- -- 68
2020-03-14 23:00:00 18.3 4 Noroeste 8 Noroeste 0 -- -- 67
2020-03-14 22:00:00 18.6 6 Oeste 13 Oeste 0 -- -- 67
2020-03-14 21:00:00 18.9 5 Oeste 14 Oeste 0 -- -- 67
2020-03-14 20:00:00 19.1 9 Oeste 20 Oeste 0 -- -- 65
2020-03-14 19:00:00 20.1 12 Oeste 20 Sudoeste 0 -- -- 60
2020-03-14 18:00:00 21.3 11 Sudoeste 20 Oeste 0 -- -- 55
2020-03-14 17:00:00 22.1 7 Noroeste 18 Oeste 0 -- -- 52
2020-03-14 16:00:00 21.7 8 Sudoeste 24 Sudoeste 0 -- -- 56
2020-03-14 15:00:00 21.6 12 Sudoeste 25 Oeste 0 -- -- 60
2020-03-14 14:00:00 21.7 13 Sudoeste 26 Oeste 0 -- -- 59
2020-03-14 13:00:00 22.1 15 Sudoeste 33 Sudoeste 0 -- -- 57
2020-03-14 12:00:00 21.6 15 Este 39 Este 0 -- -- 58
2020-03-14 11:00:00 21.2 9 Sudoeste 19 Oeste 0 -- -- 62
2020-03-14 10:00:00 21.4 9 Sur 14 Sudeste 0 -- -- 59
2020-03-14 09:00:00 19.2 2 Oeste 6 Oeste 0 -- -- 69
2020-03-14 08:00:00 16.8 3 Oeste 6 Noroeste 0 -- -- 78
2020-03-14 07:00:00 16.5 0 Calma 10 Este 0 -- -- 75
2020-03-14 06:00:00 17.1 5 Nordeste 9 Este 0 -- -- 74
2020-03-14 05:00:00 17.3 2 Nordeste 8 Sudeste 0 -- -- 76
2020-03-14 04:00:00 17.3 4 Sur 8 Sudeste 0 -- -- 79
2020-03-14 03:00:00 17.5 5 Noroeste 7 Noroeste 0 -- -- 80
2020-03-14 02:00:00 17.4 4 Oeste 8 Sudoeste 0 -- -- 77
2020-03-14 01:00:00 17.9 5 Sudoeste 9 Sudoeste 0 -- -- 75
2020-03-14 00:00:00 18 3 Sudoeste 5 Sudoeste 0 -- -- 74
2020-03-13 23:00:00 18.6 4 Sudeste 6 Este 0 -- -- 73
2020-03-13 22:00:00 18.8 3 Sur 8 Oeste 0 -- -- 75
2020-03-13 21:00:00 19 3 Sudoeste 10 Oeste 0 -- -- 74
2020-03-13 20:00:00 19.3 6 Oeste 11 Sudoeste 0 -- -- 74
2020-03-13 19:00:00 20 6 Oeste 12 Oeste 0 -- -- 72
2020-03-13 18:00:00 21.2 8 Sudoeste 18 Sudoeste 0 -- -- 68
2020-03-13 17:00:00 21.4 11 Sudoeste 19 Oeste 0 -- -- 67
2020-03-13 16:00:00 22.5 12 Oeste 23 Sudoeste 0 -- -- 64
2020-03-13 15:00:00 22.3 12 Oeste 19 Sudoeste 0 -- -- 62
2020-03-13 14:00:00 22.5 12 Sudoeste 23 Sudoeste 0 -- -- 61
2020-03-13 13:00:00 22.7 16 Oeste 28 Oeste 0 -- -- 58
2020-03-13 12:00:00 23.1 12 Oeste 24 Sudoeste 0 -- -- 60
2020-03-13 11:00:00 22.6 7 Oeste 26 Nordeste 0 -- -- 61
2020-03-13 10:00:00 21.1 10 Este 21 Este 0 -- -- 61
2020-03-13 09:00:00 19.4 4 Este 9 Este 0 -- -- 66
2020-03-13 08:00:00 17.1 3 Nordeste 6 Nordeste 0 -- -- 80
2020-03-13 07:00:00 16.7 3 Oeste 6 Este 0 -- -- 85
2020-03-13 06:00:00 17 6 Este 12 Este 0 -- -- 79
2020-03-13 05:00:00 16.8 2 Sudoeste 8 Oeste 0 -- -- 89
2020-03-13 04:00:00 17.2 3 Sur 7 Oeste 0 -- -- 90
2020-03-13 03:00:00 18 4 Noroeste 7 Oeste 0 -- -- 86
2020-03-13 02:00:00 18 3 Oeste 7 Oeste 0 -- -- 78
2020-03-13 01:00:00 18.4 3 Oeste 9 Oeste 0 -- -- 73
2020-03-13 00:00:00 18.5 4 Sudoeste 5 Sur 0 -- -- 81
2020-03-12 23:00:00 19 3 Este 5 Este 0 -- -- 81
2020-03-12 22:00:00 19.3 3 Este 14 Este 0 -- -- 79
2020-03-12 21:00:00 19.9 3 Este 10 Este 0 -- -- 78
2020-03-12 20:00:00 21.1 4 Oeste 15 Oeste 0 -- -- 62
2020-03-12 19:00:00 22.2 7 Oeste 26 Este 0 -- -- 62
2020-03-12 18:00:00 22.9 13 Este 30 Este 0 -- -- 64
2020-03-12 17:00:00 23.5 15 Este 28 Este 0 -- -- 57
2020-03-12 16:00:00 23.7 13 Este 28 Este 0 -- -- 49
2020-03-12 15:00:00 24.1 14 Este 30 Este 0 -- -- 43
2020-03-12 14:00:00 24.4 15 Este 35 Este 0 -- -- 40
2020-03-12 13:00:00 24.1 16 Este 33 Este 0 -- -- 46
2020-03-12 12:00:00 24.6 15 Este 31 Este 0 -- -- 39
2020-03-12 11:00:00 24.2 14 Este 31 Este 0 -- -- 45
2020-03-12 10:00:00 23.2 15 Este 29 Este 0 -- -- 53
2020-03-12 09:00:00 21.1 0 Calma 13 Oeste 0 -- -- 63
2020-03-12 08:00:00 18.2 6 Oeste 13 Oeste 0 -- -- 66
2020-03-12 07:00:00 18.2 4 Sudoeste 21 Este 0 -- -- 50
2020-03-12 06:00:00 21.7 3 Sudeste 16 Nordeste 0 -- -- 37
2020-03-12 05:00:00 22.5 5 Nordeste 24 Este 0 -- -- 15
2020-03-12 04:00:00 21.8 9 Este 25 Nordeste 0 -- -- 25
2020-03-12 03:00:00 19.7 6 Nordeste 20 Este 0 -- -- 41
2020-03-12 02:00:00 18.4 6 Este 13 Sudeste 0 -- -- 55
2020-03-12 01:00:00 17.7 3 Este 7 Este 0 -- -- 75
2020-03-12 00:00:00 18.7 3 Este 16 Este 0 -- -- 75
2020-03-11 23:00:00 19.4 4 Este 35 Sudeste 0 -- -- 74
2020-03-11 22:00:00 20.3 5 Oeste 10 Oeste 0 -- -- 57
2020-03-11 21:00:00 20.2 4 Oeste 11 Oeste 0 -- -- 67
2020-03-11 20:00:00 21 4 Oeste 19 Este 0 -- -- 62
2020-03-11 19:00:00 21.6 11 Este 19 Sudeste 0 -- -- 59
2020-03-11 18:00:00 21.9 8 Este 24 Este 0 -- -- 58
2020-03-11 17:00:00 21.4 14 Este 26 Este 0 -- -- 60
2020-03-11 16:00:00 21.5 17 Este 32 Este 0 -- -- 62
2020-03-11 15:00:00 21.7 16 Este 32 Este 0 -- -- 58
2020-03-11 14:00:00 21.8 17 Este 31 Este 0 -- -- 66
2020-03-11 13:00:00 22.3 11 Este 29 Este 0 -- -- 63
2020-03-11 12:00:00 20.1 13 Este 27 Este 0 -- -- 78
2020-03-11 11:00:00 20 9 Este 18 Este 0 -- -- 76
2020-03-11 10:00:00 18.5 5 Nordeste 13 Este 0 -- -- 70
2020-03-11 09:00:00 17.5 6 Este 10 Este 0 -- -- 73
2020-03-11 08:00:00 16.2 3 Noroeste 7 Oeste 0 -- -- 75
2020-03-11 07:00:00 16.4 2 Nordeste 13 Este 0 -- -- 76
2020-03-11 06:00:00 16.3 6 Este 18 Este 0 -- -- 79
2020-03-11 05:00:00 16.1 4 Nordeste 16 Este 0 -- -- 79
2020-03-11 04:00:00 16.1 2 Sur 8 Este 0 -- -- 85
2020-03-11 03:00:00 16.6 5 Este 13 Este 0 -- -- 80
2020-03-11 02:00:00 17.4 3 Oeste 6 Oeste 0 -- -- 89
2020-03-11 01:00:00 17.5 4 Sudoeste 12 Oeste 0 -- -- 85
2020-03-11 00:00:00 18.1 7 Noroeste 12 Noroeste 0 -- -- 82
2020-03-10 23:00:00 18.4 3 Este 6 Sudeste 0 -- -- 78
2020-03-10 22:00:00 19 4 Noroeste 7 Sudeste 0 -- -- 78
2020-03-10 21:00:00 19.3 4 Sudeste 6 Sur 0 -- -- 77
2020-03-10 20:00:00 19.6 3 Norte 14 Sudoeste 0 -- -- 74
2020-03-10 19:00:00 20.5 4 Sur 12 Oeste 0 -- -- 70
2020-03-10 18:00:00 21.3 8 Sudoeste 15 Sudoeste 0 -- -- 68
2020-03-10 17:00:00 23.2 9 Sur 15 Sur 0 -- -- 62
2020-03-10 16:00:00 23.8 10 Sudoeste 25 Este 0 -- -- 59
2020-03-10 15:00:00 21.6 16 Este 32 Este 0 -- -- 71
2020-03-10 14:00:00 20.6 18 Este 31 Este 0 -- -- 76
2020-03-10 13:00:00 21.2 15 Este 32 Este 0 -- -- 72
2020-03-10 12:00:00 20.3 17 Este 32 Este 0 -- -- 74
2020-03-10 11:00:00 21 12 Este 27 Este 0 -- -- 68
2020-03-10 10:00:00 21.5 8 Este 27 Este 0 -- -- 61
2020-03-10 09:00:00 21.2 6 Sudoeste 10 Sur 0 -- -- 55
2020-03-10 08:00:00 18.3 4 Noroeste 8 Noroeste 0 -- -- 55
2020-03-10 07:00:00 17.9 4 Sudeste 5 Sudeste 0 -- -- 56
2020-03-10 06:00:00 18.4 4 Oeste 9 Oeste 0 -- -- 55
2020-03-10 05:00:00 20.3 3 Sudeste 22 Este 0 -- -- 43
2020-03-10 04:00:00 22.5 12 Este 27 Nordeste 0 -- -- 31
2020-03-10 03:00:00 22.6 10 Este 24 Nordeste 0 -- -- 27
2020-03-10 02:00:00 22.1 9 Este 24 Este 0 -- -- 33
2020-03-10 01:00:00 24 7 Este 21 Nordeste 0 -- -- 29
2020-03-10 00:00:00 24 10 Este 24 Este 0 -- -- 29
2020-03-09 23:00:00 21.9 8 Este 25 Este 0 -- -- 47
2020-03-09 22:00:00 19.9 4 Sudoeste 9 Oeste 0 -- -- 68
2020-03-09 21:00:00 20.5 5 Sudoeste 11 Sudoeste 0 -- -- 66
2020-03-09 20:00:00 21.3 5 Sudoeste 19 Este 0 -- -- 64
2020-03-09 19:00:00 21.9 9 Este 27 Este 0 -- -- 63
2020-03-09 18:00:00 22.6 13 Este 31 Este 0 -- -- 61
2020-03-09 17:00:00 24.6 14 Este 29 Este 0 -- -- 50
2020-03-09 16:00:00 24.9 14 Este 37 Este 0 -- -- 41
2020-03-09 15:00:00 25 16 Este 30 Este 0 -- -- 39
2020-03-09 14:00:00 26.1 14 Este 29 Este 0 -- -- 30
2020-03-09 13:00:00 26.6 13 Este 30 Este 0 -- -- 25
2020-03-09 12:00:00 27.2 13 Este 33 Este 0 -- -- 21
2020-03-09 11:00:00 26.7 16 Nordeste 44 Nordeste 0 -- -- 20
2020-03-09 10:00:00 26.2 22 Nordeste 39 Nordeste 0 -- -- 21
2020-03-09 09:00:00 25.6 15 Nordeste 39 Nordeste 0 -- -- 21
2020-03-09 08:00:00 24.2 9 Nordeste 26 Nordeste 0 -- -- 24
2020-03-09 07:00:00 22.9 10 Este 28 Este 0 -- -- 28
2020-03-09 06:00:00 24.5 11 Nordeste 29 Nordeste 0 -- -- 23
2020-03-09 05:00:00 24.6 12 Este 32 Este 0 -- -- 21
2020-03-09 04:00:00 22.7 11 Este 31 Este 0 -- -- 30
2020-03-09 03:00:00 22 15 Este 32 Este 0 -- -- 33
2020-03-09 02:00:00 23.3 11 Este 31 Nordeste 0 -- -- 26
2020-03-09 01:00:00 21.3 14 Este 30 Este 0 -- -- 43
2020-03-09 00:00:00 21.7 8 Este 18 Este 0 -- -- 38
2020-03-08 23:00:00 20.2 5 Sudoeste 12 Nordeste 0 -- -- 59
2020-03-08 22:00:00 20.6 4 Este 13 Este 0 -- -- 64
2020-03-08 21:00:00 21.6 5 Este 19 Sudeste 0 -- -- 59
2020-03-08 20:00:00 25.3 8 Este 21 Este 0 -- -- 33
2020-03-08 19:00:00 25.2 9 Este 26 Este 0 -- -- 32
2020-03-08 18:00:00 25.3 14 Este 31 Este 0 -- -- 38
2020-03-08 17:00:00 28.6 10 Este 34 Este 0 -- -- 20
2020-03-08 16:00:00 25.2 15 Este 34 Este 0 -- -- 47
2020-03-08 15:00:00 26.8 17 Este 36 Este 0 -- -- 30
2020-03-08 14:00:00 25.6 19 Este 43 Este 0 -- -- 40
2020-03-08 13:00:00 26.4 18 Este 36 Este 0 -- -- 28
2020-03-08 12:00:00 27.9 14 Este 62 Nordeste 0 -- -- 23
2020-03-08 11:00:00 27.2 21 Nordeste 44 Nordeste 0 -- -- 24
2020-03-08 10:00:00 25 17 Este 37 Este 0 -- -- 31
2020-03-08 09:00:00 19.7 3 Sur 8 Norte 0 -- -- 70
2020-03-08 08:00:00 16.9 6 Oeste 10 Oeste 0 -- -- 80
2020-03-08 07:00:00 16.3 6 Oeste 11 Oeste 0 -- -- 76
2020-03-08 06:00:00 16.6 6 Noroeste 13 Noroeste 0 -- -- 76
2020-03-08 05:00:00 16.6 8 Noroeste 12 Noroeste 0 -- -- 82
2020-03-08 04:00:00 16.5 2 Nordeste 6 Sudeste 0 -- -- 85
2020-03-08 03:00:00 16.9 2 Noroeste 11 Oeste 0 -- -- 83
2020-03-08 02:00:00 17.3 8 Noroeste 10 Noroeste 0 -- -- 81
2020-03-08 01:00:00 17.5 4 Norte 8 Este 0 -- -- 78
2020-03-08 00:00:00 17.7 6 Sudeste 12 Noroeste 0 -- -- 77
2020-03-07 23:00:00 18.2 6 Noroeste 10 Oeste 0 -- -- 76
2020-03-07 22:00:00 18.3 4 Sudoeste 6 Sudoeste 0 -- -- 76
2020-03-07 21:00:00 18.8 4 Sur 9 Oeste 0 -- -- 72
2020-03-07 20:00:00 19.3 5 Oeste 13 Oeste 0 -- -- 71
2020-03-07 19:00:00 20.2 10 Oeste 15 Oeste 0 -- -- 66
2020-03-07 18:00:00 21.2 9 Sudoeste 15 Oeste 0 -- -- 59
2020-03-07 17:00:00 21.9 9 Sudoeste 19 Sudoeste 0 -- -- 58
2020-03-07 16:00:00 22.1 13 Sudoeste 22 Sudoeste 0 -- -- 56
2020-03-07 15:00:00 22.3 13 Oeste 30 Sudoeste 0 -- -- 56
2020-03-07 14:00:00 22.3 12 Sudoeste 24 Oeste 0 -- -- 56
2020-03-07 13:00:00 21.6 18 Sudoeste 30 Oeste 0 -- -- 55
2020-03-07 12:00:00 21.6 12 Sudoeste 22 Oeste 0 -- -- 55
2020-03-07 11:00:00 21 9 Oeste 20 Sudoeste 0 -- -- 57
2020-03-07 10:00:00 19.6 5 Oeste 12 Norte 0 -- -- 60
2020-03-07 09:00:00 17.7 6 Norte 14 Norte 0 -- -- 68
2020-03-07 08:00:00 15.4 4 Norte 12 Norte 0 -- -- 74
2020-03-07 07:00:00 15.4 6 Norte 12 Norte 0 -- -- 75
2020-03-07 06:00:00 15.6 9 Norte 13 Norte 0 -- -- 75
2020-03-07 05:00:00 15.9 5 Norte 12 Norte 0 -- -- 74
2020-03-07 04:00:00 16.1 3 Nordeste 6 Norte 0 -- -- 73
2020-03-07 03:00:00 16.6 4 Norte 8 Norte 0 -- -- 72
2020-03-07 02:00:00 16.8 5 Nordeste 9 Norte 0 -- -- 69
2020-03-07 01:00:00 17.3 4 Este 13 Sudeste 0 -- -- 65
2020-03-07 00:00:00 17.3 5 Sur 8 Nordeste 0 -- -- 65
2020-03-06 23:00:00 17.9 3 Nordeste 11 Este 0 -- -- 55
2020-03-06 22:00:00 18.3 7 Nordeste 16 Nordeste 0 -- -- 54
2020-03-06 21:00:00 18.7 8 Este 20 Este 0 -- -- 59
2020-03-06 20:00:00 19.1 4 Oeste 14 Sudeste 0 -- -- 67
2020-03-06 19:00:00 20 11 Oeste 17 Oeste 0 -- -- 63
2020-03-06 18:00:00 21.3 4 Sudoeste 19 Oeste 0 -- -- 57
2020-03-06 17:00:00 22.1 13 Sudoeste 29 Sudoeste 0 -- -- 54
2020-03-06 16:00:00 22.5 14 Sudoeste 34 Oeste 0 -- -- 56
2020-03-06 15:00:00 22.8 12 Sudoeste 29 Oeste 0 -- -- 57
2020-03-06 14:00:00 22 18 Oeste 36 Oeste 0 -- -- 61
2020-03-06 13:00:00 22.5 8 Oeste 36 Nordeste 0 -- -- 58
2020-03-06 12:00:00 22.1 9 Sudoeste 24 Nordeste 0 -- -- 60
2020-03-06 11:00:00 21.9 9 Este 32 Nordeste 0 -- -- 59
2020-03-06 10:00:00 20.9 10 Sudeste 28 Nordeste 0 -- -- 58
2020-03-06 09:00:00 20 3 Este 22 Nordeste 0 -- -- 66
2020-03-06 08:00:00 17.3 6 Nordeste 29 Este 0 -- -- 74
2020-03-06 07:00:00 16.5 3 Norte 8 Norte 0 -- -- 80
2020-03-06 06:00:00 17.5 2 Este 13 Sudeste 0 -- -- 79
2020-03-06 05:00:00 17.2 4 Nordeste 8 Nordeste 0 -- -- 79
2020-03-06 04:00:00 17.5 5 Sudoeste 11 Noroeste 0 -- -- 80
2020-03-06 03:00:00 17.9 8 Noroeste 12 Noroeste 0 -- -- 80
2020-03-06 02:00:00 17.7 4 Noroeste 8 Oeste 0 -- -- 82
2020-03-06 01:00:00 17.9 3 Noroeste 8 Oeste 0 -- -- 82
2020-03-06 00:00:00 18.5 5 Oeste 7 Noroeste 0 -- -- 83
2020-03-05 23:00:00 18.8 3 Norte 5 Nordeste 0 -- -- 82
2020-03-05 22:00:00 18.9 2 Sudoeste 8 Oeste 0 -- -- 80
2020-03-05 21:00:00 19.2 5 Oeste 12 Oeste 0 -- -- 79
2020-03-05 20:00:00 19.5 5 Sudoeste 14 Sudoeste 0 -- -- 76
2020-03-05 19:00:00 20.4 11 Sudoeste 19 Sudoeste 0 -- -- 73
2020-03-05 18:00:00 22 9 Sudoeste 21 Sudoeste 0 -- -- 67
2020-03-05 17:00:00 22.9 13 Oeste 19 Sudoeste 0 -- -- 62
2020-03-05 16:00:00 23.2 13 Sudoeste 29 Sudoeste 0 -- -- 62
2020-03-05 15:00:00 24 12 Sudoeste 22 Sudoeste 0 -- -- 58
2020-03-05 14:00:00 23.7 15 Sudoeste 23 Sudoeste 0 -- -- 58
2020-03-05 13:00:00 23 14 Sudoeste 24 Sudoeste 0 -- -- 63
2020-03-05 12:00:00 23.1 7 Sur 13 Sudoeste 0 -- -- 65
2020-03-05 11:00:00 21.6 8 Oeste 17 Oeste 0 -- -- 71
2020-03-05 10:00:00 20.7 5 Sudoeste 11 Sur 0 -- -- 75
2020-03-05 09:00:00 18.5 4 Nordeste 7 Nordeste 0 -- -- 84
2020-03-05 08:00:00 17.2 3 Norte 6 Oeste 0 -- -- 88
2020-03-05 07:00:00 17.4 3 Nordeste 9 Este 0 -- -- 86
2020-03-05 06:00:00 18 2 Norte 10 Noroeste 0 -- -- 87
2020-03-05 05:00:00 18.1 3 Nordeste 6 Sudeste 0 -- -- 85
2020-03-05 04:00:00 18.2 4 Nordeste 9 Norte 0 -- -- 89
2020-03-05 03:00:00 17.8 3 Sudoeste 10 Oeste 0 -- -- 89
2020-03-05 02:00:00 18 6 Oeste 9 Oeste 0 -- -- 89
2020-03-05 01:00:00 18.5 2 Oeste 17 Oeste 0 -- -- 88
2020-03-05 00:00:00 18.6 11 Oeste 18 Oeste 0 -- -- 89
2020-03-04 23:00:00 18.8 6 Oeste 12 Oeste 0 -- -- 87
2020-03-04 22:00:00 19.1 4 Sudoeste 10 Sudoeste 0 -- -- 84
2020-03-04 21:00:00 19.4 6 Oeste 10 Sudoeste 0 -- -- 83
2020-03-04 20:00:00 20 3 Sur 13 Oeste 0 -- -- 78
2020-03-04 19:00:00 21.2 8 Sudoeste 15 Sudoeste 0 -- -- 69
2020-03-04 18:00:00 23.4 4 Sur 12 Oeste 0 -- -- 61
2020-03-04 17:00:00 24 8 Sudoeste 16 Sudoeste 0 -- -- 58
2020-03-04 16:00:00 24.1 10 Sudoeste 19 Sudoeste 0 -- -- 55
2020-03-04 15:00:00 23.6 10 Oeste 20 Oeste 0 -- -- 60
2020-03-04 14:00:00 23.4 11 Sudoeste 19 Sudoeste 0 -- -- 62
2020-03-04 13:00:00 23.4 10 Oeste 21 Sudoeste 0 -- -- 62
2020-03-04 12:00:00 23.1 11 Sudoeste 18 Sudoeste 0 -- -- 61
2020-03-04 11:00:00 22.7 9 Sudoeste 14 Sudoeste 0 -- -- 62
2020-03-04 10:00:00 21.3 5 Sudoeste 9 Sur 0 -- -- 73
2020-03-04 09:00:00 19.9 3 Sur 5 Sudeste 0 -- -- 76
2020-03-04 08:00:00 16.8 2 Sudoeste 11 Oeste 0 -- -- 77
2020-03-04 07:00:00 16.2 2 Norte 8 Noroeste 0 -- -- 77
2020-03-04 06:00:00 16.4 4 Oeste 6 Oeste 0 -- -- 88
2020-03-04 05:00:00 16.3 0 Calma 11 Oeste 0 -- -- 83
2020-03-04 04:00:00 16.5 7 Oeste 12 Oeste 0 -- -- 82
2020-03-04 03:00:00 16.6 2 Este 7 Oeste 0 -- -- 85
2020-03-04 02:00:00 17.5 3 Noroeste 12 Noroeste 0 -- -- 85
2020-03-04 01:00:00 17.6 6 Oeste 11 Oeste 0 -- -- 87
2020-03-04 00:00:00 18.1 5 Noroeste 12 Oeste 0 -- -- 86
2020-03-03 23:00:00 18 3 Oeste 9 Sudoeste 0 -- -- 85
2020-03-03 22:00:00 18.6 5 Oeste 8 Sudoeste 0 -- -- 84
2020-03-03 21:00:00 18.9 5 Oeste 9 Sudoeste 0 -- -- 82
2020-03-03 20:00:00 19.2 6 Sudoeste 12 Sudoeste 0 -- -- 80
2020-03-03 19:00:00 20.2 7 Sudoeste 13 Sudoeste 0 -- -- 74
2020-03-03 18:00:00 21.2 9 Sudoeste 19 Sudoeste 0 -- -- 70
2020-03-03 17:00:00 22.3 11 Sudoeste 21 Sudoeste 0 -- -- 66
2020-03-03 16:00:00 22.9 13 Sudoeste 28 Sudoeste 0 -- -- 64
2020-03-03 15:00:00 22.7 15 Sudoeste 26 Sudoeste 0 -- -- 64
2020-03-03 14:00:00 22.6 14 Oeste 22 Oeste 0 -- -- 63
2020-03-03 13:00:00 23.1 13 Sudoeste 21 Sudoeste 0 -- -- 61
2020-03-03 12:00:00 22.1 8 Oeste 18 Oeste 0 -- -- 63
2020-03-03 11:00:00 22.2 7 Sudoeste 14 Sudoeste 0 -- -- 64
2020-03-03 10:00:00 20.3 5 Oeste 10 Sudoeste 0 -- -- 71
2020-03-03 09:00:00 18.2 3 Norte 9 Noroeste 0 -- -- 76
2020-03-03 08:00:00 16.2 4 Norte 6 Norte 0 -- -- 81
2020-03-03 07:00:00 16 4 Noroeste 9 Noroeste 0 -- -- 80
2020-03-03 06:00:00 16.3 3 Este 8 Norte 0 -- -- 82
2020-03-03 05:00:00 16.6 0 Calma 5 Nordeste 0 -- -- 81
2020-03-03 04:00:00 16.5 3 Norte 4 Norte 0 -- -- 81
2020-03-03 03:00:00 16.9 0 Calma 6 Norte 0 -- -- 81
2020-03-03 02:00:00 17.3 3 Sur 8 Norte 0 -- -- 81
2020-03-03 01:00:00 17.9 5 Noroeste 11 Noroeste 0 -- -- 78
2020-03-03 00:00:00 18 6 Oeste 10 Oeste 0 -- -- 81
2020-03-02 23:00:00 18.5 0 Calma 6 Sudoeste 0 -- -- 79
2020-03-02 22:00:00 18.8 3 Oeste 6 Sudoeste 0 -- -- 77
2020-03-02 21:00:00 19.1 3 Sudoeste 8 Sudoeste 0 -- -- 77
2020-03-02 20:00:00 19.7 6 Sudoeste 14 Sudoeste 0 -- -- 74
2020-03-02 19:00:00 20.6 7 Sudoeste 20 Oeste 0 -- -- 69
2020-03-02 18:00:00 21.9 10 Sudoeste 21 Oeste 0 -- -- 63
2020-03-02 17:00:00 23 9 Sudoeste 17 Sudoeste 0 -- -- 58
2020-03-02 16:00:00 23 9 Sudoeste 22 Sudoeste 0 -- -- 58
2020-03-02 15:00:00 22.8 13 Sudoeste 27 Sudoeste 0 -- -- 59
2020-03-02 14:00:00 22.7 14 Sudoeste 27 Sudoeste 0 -- -- 55
2020-03-02 13:00:00 22.3 15 Sudoeste 26 Oeste 0 -- -- 58
2020-03-02 12:00:00 22.3 7 Sudoeste 18 Sur 0 -- -- 58
2020-03-02 11:00:00 21.7 10 Sur 19 Sudoeste 0 -- -- 62
2020-03-02 10:00:00 20.7 5 Sur 11 Sudoeste 0 -- -- 65
2020-03-02 09:00:00 19.2 3 Sur 6 Sudeste 0 -- -- 69
2020-03-02 08:00:00 16.8 2 Este 10 Noroeste 0 -- -- 77
2020-03-02 07:00:00 16.8 5 Norte 9 Norte 0 -- -- 78
2020-03-02 06:00:00 17.1 6 Norte 10 Norte 0 -- -- 77
2020-03-02 05:00:00 17.1 5 Norte 8 Norte 0 -- -- 77
2020-03-02 04:00:00 17 4 Sudoeste 6 Sur 0 -- -- 80
2020-03-02 03:00:00 17.2 3 Oeste 7 Oeste 0 -- -- 79
2020-03-02 02:00:00 17.8 5 Norte 9 Norte 0 -- -- 77
2020-03-02 01:00:00 18.1 6 Noroeste 11 Oeste 0 -- -- 73
2020-03-02 00:00:00 18.4 4 Sur 11 Este 0 -- -- 71
2020-03-01 23:00:00 18.4 6 Sudeste 10 Este 0 -- -- 71
2020-03-01 22:00:00 18.2 2 Sudoeste 13 Este 0 -- -- 72
2020-03-01 21:00:00 18.5 9 Este 16 Este 0 -- -- 71
2020-03-01 20:00:00 19.3 9 Oeste 16 Este 0 -- -- 72
2020-03-01 19:00:00 19.4 8 Este 20 Este 0 -- -- 71
2020-03-01 18:00:00 19.7 9 Sudeste 27 Sudeste 0 -- -- 71
2020-03-01 17:00:00 20.1 11 Sudeste 21 Sur 0 -- -- 71
2020-03-01 16:00:00 19.6 10 Sudeste 21 Sudeste 0 -- -- 72
2020-03-01 15:00:00 21.5 9 Sudoeste 35 Este 0 -- -- 66
2020-03-01 14:00:00 20.7 15 Este 37 Nordeste 0 -- -- 69
2020-03-01 13:00:00 20.3 18 Este 35 Este 0 -- -- 70
2020-03-01 12:00:00 20.5 15 Este 37 Este 0 -- -- 68
2020-03-01 11:00:00 21 5 Sudoeste 13 Sudeste 0 -- -- 67
2020-03-01 10:00:00 19.8 4 Sur 9 Sur 0 -- -- 71
2020-03-01 09:00:00 18 5 Sudeste 8 Este 0 -- -- 76
2020-03-01 08:00:00 15.6 0 Calma 4 Norte 0 -- -- 83
2020-03-01 07:00:00 15.6 4 Norte 6 Norte 0 -- -- 81
2020-03-01 06:00:00 16 3 Norte 5 Norte 0 -- -- 83
2020-03-01 05:00:00 16 2 Nordeste 7 Norte 0 -- -- 82
2020-03-01 04:00:00 16.6 3 Norte 5 Este 0 -- -- 82
2020-03-01 03:00:00 16.5 0 Calma 4 Este 0 -- -- 83
2020-03-01 02:00:00 16.9 0 Calma 5 Este 0 -- -- 82
2020-03-01 01:00:00 17.3 0 Calma 5 Noroeste 0 -- -- 82
2020-03-01 00:00:00 17.4 0 Calma 6 Sudoeste 0 -- -- 81
2020-02-29 23:00:00 17.5 0 Calma 6 Sudoeste 0 -- -- 79
2020-02-29 22:00:00 18 3 Sur 6 Sur 0 -- -- 81
2020-02-29 21:00:00 18.5 4 Oeste 11 Oeste 0 -- -- 75
2020-02-29 20:00:00 18.7 4 Oeste 12 Sudoeste 0 -- -- 78
2020-02-29 19:00:00 19.5 7 Sudoeste 18 Sudoeste 0 -- -- 74
2020-02-29 18:00:00 21.2 9 Sudoeste 17 Sudeste 0 -- -- 65
2020-02-29 17:00:00 20.5 11 Sudeste 26 Sur 0 -- -- 69
2020-02-29 16:00:00 22.1 11 Sudoeste 21 Oeste 0 -- -- 62
2020-02-29 15:00:00 22.3 9 Sudoeste 20 Oeste 0 -- -- 61
2020-02-29 14:00:00 21.8 8 Noroeste 23 Este 0 -- -- 63
2020-02-29 13:00:00 21.6 11 Oeste 22 Sudoeste 0 -- -- 64
2020-02-29 12:00:00 21.6 13 Oeste 21 Sudoeste 0 -- -- 65
2020-02-29 11:00:00 21.3 9 Sudoeste 19 Sudoeste 0 -- -- 63
2020-02-29 10:00:00 19.5 5 Este 10 Sudeste 0 -- -- 68
2020-02-29 09:00:00 17.7 3 Sudeste 8 Noroeste 0 -- -- 71
2020-02-29 08:00:00 15.6 2 Norte 6 Este 0 -- -- 79
2020-02-29 07:00:00 15.5 2 Nordeste 6 Norte 0 -- -- 74
2020-02-29 06:00:00 15.9 2 Nordeste 9 Noroeste 0 -- -- 78
2020-02-29 05:00:00 16.1 4 Noroeste 6 Noroeste 0 -- -- 81
2020-02-29 04:00:00 16.3 2 Nordeste 5 Oeste 0 -- -- 80
2020-02-29 03:00:00 16.8 0 Calma 8 Este 0 -- -- 78
2020-02-29 02:00:00 17 2 Este 12 Noroeste 0 -- -- 79
2020-02-29 01:00:00 17.5 8 Noroeste 14 Noroeste 0 -- -- 76
2020-02-29 00:00:00 17.7 6 Noroeste 9 Noroeste 0 -- -- 78